sensor_id;sensor_type;location;lat;lon;timestamp;temperature;humidity
78992;DHT22;72820;44.838;37.674;2023-11-21T00:00:31;2.89;86.45
78992;DHT22;72820;44.838;37.674;2023-11-21T00:01:33;2.91;86.53
78992;DHT22;72820;44.838;37.674;2023-11-21T00:02:34;2.89;86.65
78992;DHT22;72820;44.838;37.674;2023-11-21T00:03:36;2.91;86.78
78992;DHT22;72820;44.838;37.674;2023-11-21T00:04:37;2.91;87.08
78992;DHT22;72820;44.838;37.674;2023-11-21T00:05:38;2.93;87.09
78992;DHT22;72820;44.838;37.674;2023-11-21T00:06:42;2.91;86.95
78992;DHT22;72820;44.838;37.674;2023-11-21T00:07:44;2.92;86.97
78992;DHT22;72820;44.838;37.674;2023-11-21T00:08:45;2.96;86.93
78992;DHT22;72820;44.838;37.674;2023-11-21T00:09:47;2.92;86.87
78992;DHT22;72820;44.838;37.674;2023-11-21T00:10:48;2.95;87.06
78992;DHT22;72820;44.838;37.674;2023-11-21T00:11:49;2.96;87.11
78992;DHT22;72820;44.838;37.674;2023-11-21T00:12:51;2.93;86.93
78992;DHT22;72820;44.838;37.674;2023-11-21T00:13:55;2.93;86.93
78992;DHT22;72820;44.838;37.674;2023-11-21T00:14:57;2.95;86.70
78992;DHT22;72820;44.838;37.674;2023-11-21T00:15:59;2.93;86.43
78992;DHT22;72820;44.838;37.674;2023-11-21T00:17:00;2.92;86.59
78992;DHT22;72820;44.838;37.674;2023-11-21T00:18:02;2.93;86.75
78992;DHT22;72820;44.838;37.674;2023-11-21T00:19:03;2.92;86.69
78992;DHT22;72820;44.838;37.674;2023-11-21T00:20:06;2.93;86.92
78992;DHT22;72820;44.838;37.674;2023-11-21T00:21:09;2.96;86.89
78992;DHT22;72820;44.838;37.674;2023-11-21T00:22:10;2.99;87.03
78992;DHT22;72820;44.838;37.674;2023-11-21T00:23:11;3.00;86.88
78992;DHT22;72820;44.838;37.674;2023-11-21T00:24:14;3.03;87.01
78992;DHT22;72820;44.838;37.674;2023-11-21T00:25:15;3.04;86.76
78992;DHT22;72820;44.838;37.674;2023-11-21T00:26:18;3.03;86.65
78992;DHT22;72820;44.838;37.674;2023-11-21T00:27:25;3.03;86.48
78992;DHT22;72820;44.838;37.674;2023-11-21T00:28:26;3.02;86.33
78992;DHT22;72820;44.838;37.674;2023-11-21T00:29:28;3.00;86.27
78992;DHT22;72820;44.838;37.674;2023-11-21T00:30:30;3.04;86.52
78992;DHT22;72820;44.838;37.674;2023-11-21T00:31:32;3.07;86.74
78992;DHT22;72820;44.838;37.674;2023-11-21T00:32:33;3.03;86.56
78992;DHT22;72820;44.838;37.674;2023-11-21T00:33:34;3.02;86.82
78992;DHT22;72820;44.838;37.674;2023-11-21T00:34:36;3.03;86.84
78992;DHT22;72820;44.838;37.674;2023-11-21T00:35:37;3.07;87.04
78992;DHT22;72820;44.838;37.674;2023-11-21T00:36:39;3.04;86.98
78992;DHT22;72820;44.838;37.674;2023-11-21T00:37:41;3.04;86.79
78992;DHT22;72820;44.838;37.674;2023-11-21T00:38:43;3.04;87.03
78992;DHT22;72820;44.838;37.674;2023-11-21T00:39:44;3.06;86.64
78992;DHT22;72820;44.838;37.674;2023-11-21T00:40:46;3.04;86.79
78992;DHT22;72820;44.838;37.674;2023-11-21T00:41:47;3.02;86.88
78992;DHT22;72820;44.838;37.674;2023-11-21T00:42:49;3.02;87.16
78992;DHT22;72820;44.838;37.674;2023-11-21T00:43:50;3.02;87.52
78992;DHT22;72820;44.838;37.674;2023-11-21T00:44:52;3.03;87.51
78992;DHT22;72820;44.838;37.674;2023-11-21T00:45:53;3.06;87.44
78992;DHT22;72820;44.838;37.674;2023-11-21T00:46:54;3.06;87.42
78992;DHT22;72820;44.838;37.674;2023-11-21T00:47:56;3.06;87.61
78992;DHT22;72820;44.838;37.674;2023-11-21T00:48:59;3.06;87.65
78992;DHT22;72820;44.838;37.674;2023-11-21T00:50:00;3.09;87.64
78992;DHT22;72820;44.838;37.674;2023-11-21T00:51:01;3.09;87.40
78992;DHT22;72820;44.838;37.674;2023-11-21T00:52:03;3.06;87.60
78992;DHT22;72820;44.838;37.674;2023-11-21T00:53:04;3.06;87.46
78992;DHT22;72820;44.838;37.674;2023-11-21T00:54:05;3.04;87.58
78992;DHT22;72820;44.838;37.674;2023-11-21T00:55:08;3.03;87.66
78992;DHT22;72820;44.838;37.674;2023-11-21T00:56:09;3.03;87.92
78992;DHT22;72820;44.838;37.674;2023-11-21T00:57:11;3.03;87.76
78992;DHT22;72820;44.838;37.674;2023-11-21T00:58:13;3.00;87.76
78992;DHT22;72820;44.838;37.674;2023-11-21T00:59:14;2.97;87.93
78992;DHT22;72820;44.838;37.674;2023-11-21T01:00:16;2.99;87.88
78992;DHT22;72820;44.838;37.674;2023-11-21T01:01:19;3.00;88.06
78992;DHT22;72820;44.838;37.674;2023-11-21T01:02:20;3.02;88.14
78992;DHT22;72820;44.838;37.674;2023-11-21T01:03:22;3.02;88.11
78992;DHT22;72820;44.838;37.674;2023-11-21T01:04:23;3.03;87.81
78992;DHT22;72820;44.838;37.674;2023-11-21T01:05:25;3.00;88.05
78992;DHT22;72820;44.838;37.674;2023-11-21T01:06:26;3.04;88.10
78992;DHT22;72820;44.838;37.674;2023-11-21T01:07:28;3.00;87.83
78992;DHT22;72820;44.838;37.674;2023-11-21T01:08:29;3.02;87.82
78992;DHT22;72820;44.838;37.674;2023-11-21T01:09:30;2.96;87.60
78992;DHT22;72820;44.838;37.674;2023-11-21T01:10:32;2.95;87.65
78992;DHT22;72820;44.838;37.674;2023-11-21T01:11:36;2.95;87.72
78992;DHT22;72820;44.838;37.674;2023-11-21T01:12:38;2.97;87.84
78992;DHT22;72820;44.838;37.674;2023-11-21T01:13:40;2.99;87.89
78992;DHT22;72820;44.838;37.674;2023-11-21T01:14:41;2.99;87.85
78992;DHT22;72820;44.838;37.674;2023-11-21T01:15:43;2.99;88.04
78992;DHT22;72820;44.838;37.674;2023-11-21T01:16:44;2.99;88.02
78992;DHT22;72820;44.838;37.674;2023-11-21T01:17:45;3.00;87.77
78992;DHT22;72820;44.838;37.674;2023-11-21T01:18:46;3.03;88.12
78992;DHT22;72820;44.838;37.674;2023-11-21T01:19:48;3.02;88.06
78992;DHT22;72820;44.838;37.674;2023-11-21T01:20:49;3.02;87.82
78992;DHT22;72820;44.838;37.674;2023-11-21T01:21:50;3.00;87.67
78992;DHT22;72820;44.838;37.674;2023-11-21T01:22:53;3.02;87.92
78992;DHT22;72820;44.838;37.674;2023-11-21T01:23:55;3.00;87.92
78992;DHT22;72820;44.838;37.674;2023-11-21T01:24:57;3.03;87.72
78992;DHT22;72820;44.838;37.674;2023-11-21T01:25:58;3.02;87.57
78992;DHT22;72820;44.838;37.674;2023-11-21T01:27:00;3.02;87.89
78992;DHT22;72820;44.838;37.674;2023-11-21T01:28:01;2.99;87.38
78992;DHT22;72820;44.838;37.674;2023-11-21T01:29:03;2.97;87.63
78992;DHT22;72820;44.838;37.674;2023-11-21T01:30:04;3.02;87.58
78992;DHT22;72820;44.838;37.674;2023-11-21T01:31:06;3.03;87.49
78992;DHT22;72820;44.838;37.674;2023-11-21T01:32:08;3.02;87.58
78992;DHT22;72820;44.838;37.674;2023-11-21T01:33:12;3.03;87.50
78992;DHT22;72820;44.838;37.674;2023-11-21T01:34:14;3.02;87.41
78992;DHT22;72820;44.838;37.674;2023-11-21T01:35:15;3.02;87.40
78992;DHT22;72820;44.838;37.674;2023-11-21T01:36:16;3.03;87.56
78992;DHT22;72820;44.838;37.674;2023-11-21T01:37:20;3.03;87.77
78992;DHT22;72820;44.838;37.674;2023-11-21T01:38:22;3.04;87.78
78992;DHT22;72820;44.838;37.674;2023-11-21T01:39:25;3.00;87.74
78992;DHT22;72820;44.838;37.674;2023-11-21T01:40:26;3.02;87.72
78992;DHT22;72820;44.838;37.674;2023-11-21T01:41:29;3.03;87.63
78992;DHT22;72820;44.838;37.674;2023-11-21T01:42:31;3.02;87.71
78992;DHT22;72820;44.838;37.674;2023-11-21T01:43:33;3.03;87.66
78992;DHT22;72820;44.838;37.674;2023-11-21T01:44:34;3.03;87.71
78992;DHT22;72820;44.838;37.674;2023-11-21T01:45:36;3.04;87.75
78992;DHT22;72820;44.838;37.674;2023-11-21T01:46:38;3.03;87.72
78992;DHT22;72820;44.838;37.674;2023-11-21T01:47:41;3.06;87.69
78992;DHT22;72820;44.838;37.674;2023-11-21T01:48:44;3.06;87.87
78992;DHT22;72820;44.838;37.674;2023-11-21T01:49:46;3.07;87.59
78992;DHT22;72820;44.838;37.674;2023-11-21T01:50:48;3.06;87.55
78992;DHT22;72820;44.838;37.674;2023-11-21T01:51:50;3.09;87.49
78992;DHT22;72820;44.838;37.674;2023-11-21T01:52:53;3.04;87.55
78992;DHT22;72820;44.838;37.674;2023-11-21T01:53:56;3.07;87.54
78992;DHT22;72820;44.838;37.674;2023-11-21T01:54:58;3.10;87.82
78992;DHT22;72820;44.838;37.674;2023-11-21T01:56:01;3.12;87.97
78992;DHT22;72820;44.838;37.674;2023-11-21T01:57:04;3.12;87.71
78992;DHT22;72820;44.838;37.674;2023-11-21T01:58:08;3.13;87.87
78992;DHT22;72820;44.838;37.674;2023-11-21T01:59:10;3.17;87.78
78992;DHT22;72820;44.838;37.674;2023-11-21T02:00:13;3.14;87.68
78992;DHT22;72820;44.838;37.674;2023-11-21T02:01:18;3.17;87.77
78992;DHT22;72820;44.838;37.674;2023-11-21T02:02:20;3.17;87.72
78992;DHT22;72820;44.838;37.674;2023-11-21T02:03:22;3.13;87.69
78992;DHT22;72820;44.838;37.674;2023-11-21T02:04:23;3.17;87.73
78992;DHT22;72820;44.838;37.674;2023-11-21T02:05:25;3.13;87.77
78992;DHT22;72820;44.838;37.674;2023-11-21T02:06:27;3.13;88.05
78992;DHT22;72820;44.838;37.674;2023-11-21T02:07:32;3.10;88.06
78992;DHT22;72820;44.838;37.674;2023-11-21T02:08:33;3.12;88.15
78992;DHT22;72820;44.838;37.674;2023-11-21T02:09:35;3.13;88.25
78992;DHT22;72820;44.838;37.674;2023-11-21T02:10:39;3.14;88.27
78992;DHT22;72820;44.838;37.674;2023-11-21T02:11:41;3.10;88.00
78992;DHT22;72820;44.838;37.674;2023-11-21T02:12:44;3.09;88.09
78992;DHT22;72820;44.838;37.674;2023-11-21T02:13:45;3.12;88.38
78992;DHT22;72820;44.838;37.674;2023-11-21T02:14:48;3.12;88.39
78992;DHT22;72820;44.838;37.674;2023-11-21T02:15:50;3.12;88.20
78992;DHT22;72820;44.838;37.674;2023-11-21T02:16:55;3.10;88.23
78992;DHT22;72820;44.838;37.674;2023-11-21T02:17:58;3.12;88.25
78992;DHT22;72820;44.838;37.674;2023-11-21T02:19:01;3.14;88.46
78992;DHT22;72820;44.838;37.674;2023-11-21T02:20:03;3.16;88.48
78992;DHT22;72820;44.838;37.674;2023-11-21T02:21:07;3.12;88.24
78992;DHT22;72820;44.838;37.674;2023-11-21T02:22:12;3.10;88.27
78992;DHT22;72820;44.838;37.674;2023-11-21T02:23:13;3.12;88.41
78992;DHT22;72820;44.838;37.674;2023-11-21T02:24:15;3.12;88.35
78992;DHT22;72820;44.838;37.674;2023-11-21T02:25:19;3.09;88.38
78992;DHT22;72820;44.838;37.674;2023-11-21T02:26:21;3.12;88.30
78992;DHT22;72820;44.838;37.674;2023-11-21T02:27:24;3.13;88.50
78992;DHT22;72820;44.838;37.674;2023-11-21T02:28:25;3.12;88.61
78992;DHT22;72820;44.838;37.674;2023-11-21T02:29:27;3.14;88.54
78992;DHT22;72820;44.838;37.674;2023-11-21T02:30:29;3.13;88.42
78992;DHT22;72820;44.838;37.674;2023-11-21T02:31:34;3.13;88.43
78992;DHT22;72820;44.838;37.674;2023-11-21T02:32:36;3.17;88.37
78992;DHT22;72820;44.838;37.674;2023-11-21T02:33:37;3.16;88.25
78992;DHT22;72820;44.838;37.674;2023-11-21T02:34:39;3.17;88.12
78992;DHT22;72820;44.838;37.674;2023-11-21T02:35:40;3.17;87.94
78992;DHT22;72820;44.838;37.674;2023-11-21T02:36:45;3.16;88.06
78992;DHT22;72820;44.838;37.674;2023-11-21T02:37:48;3.16;88.03
78992;DHT22;72820;44.838;37.674;2023-11-21T02:38:49;3.17;87.84
78992;DHT22;72820;44.838;37.674;2023-11-21T02:39:51;3.17;87.95
78992;DHT22;72820;44.838;37.674;2023-11-21T02:40:53;3.21;88.13
78992;DHT22;72820;44.838;37.674;2023-11-21T02:41:55;3.20;87.99
78992;DHT22;72820;44.838;37.674;2023-11-21T02:42:57;3.20;87.62
78992;DHT22;72820;44.838;37.674;2023-11-21T02:44:00;3.16;87.59
78992;DHT22;72820;44.838;37.674;2023-11-21T02:45:02;3.17;87.83
78992;DHT22;72820;44.838;37.674;2023-11-21T02:46:04;3.19;88.16
78992;DHT22;72820;44.838;37.674;2023-11-21T02:47:05;3.19;88.24
78992;DHT22;72820;44.838;37.674;2023-11-21T02:48:07;3.21;88.08
78992;DHT22;72820;44.838;37.674;2023-11-21T02:49:08;3.24;88.16
78992;DHT22;72820;44.838;37.674;2023-11-21T02:50:13;3.24;88.11
78992;DHT22;72820;44.838;37.674;2023-11-21T02:51:14;3.26;88.19
78992;DHT22;72820;44.838;37.674;2023-11-21T02:52:16;3.23;88.06
78992;DHT22;72820;44.838;37.674;2023-11-21T02:53:18;3.23;88.31
78992;DHT22;72820;44.838;37.674;2023-11-21T02:54:20;3.21;88.30
78992;DHT22;72820;44.838;37.674;2023-11-21T02:55:23;3.20;88.34
78992;DHT22;72820;44.838;37.674;2023-11-21T02:56:28;3.21;88.38
78992;DHT22;72820;44.838;37.674;2023-11-21T02:57:29;3.19;88.25
78992;DHT22;72820;44.838;37.674;2023-11-21T02:58:31;3.19;88.09
78992;DHT22;72820;44.838;37.674;2023-11-21T02:59:32;3.19;87.88
78992;DHT22;72820;44.838;37.674;2023-11-21T03:00:34;3.16;87.34
78992;DHT22;72820;44.838;37.674;2023-11-21T03:01:35;3.16;87.54
78992;DHT22;72820;44.838;37.674;2023-11-21T03:02:37;3.16;87.75
78992;DHT22;72820;44.838;37.674;2023-11-21T03:03:40;3.19;88.15
78992;DHT22;72820;44.838;37.674;2023-11-21T03:04:42;3.14;87.74
78992;DHT22;72820;44.838;37.674;2023-11-21T03:05:44;3.16;87.71
78992;DHT22;72820;44.838;37.674;2023-11-21T03:06:46;3.14;87.93
78992;DHT22;72820;44.838;37.674;2023-11-21T03:07:47;3.13;87.90
78992;DHT22;72820;44.838;37.674;2023-11-21T03:08:49;3.16;88.01
78992;DHT22;72820;44.838;37.674;2023-11-21T03:09:50;3.17;87.63
78992;DHT22;72820;44.838;37.674;2023-11-21T03:10:52;3.17;87.62
78992;DHT22;72820;44.838;37.674;2023-11-21T03:11:54;3.17;87.19
78992;DHT22;72820;44.838;37.674;2023-11-21T03:12:56;3.14;87.35
78992;DHT22;72820;44.838;37.674;2023-11-21T03:13:58;3.17;87.38
78992;DHT22;72820;44.838;37.674;2023-11-21T03:15:00;3.14;87.07
78992;DHT22;72820;44.838;37.674;2023-11-21T03:16:03;3.16;87.31
78992;DHT22;72820;44.838;37.674;2023-11-21T03:17:05;3.17;87.31
78992;DHT22;72820;44.838;37.674;2023-11-21T03:18:06;3.19;87.32
78992;DHT22;72820;44.838;37.674;2023-11-21T03:19:09;3.19;87.28
78992;DHT22;72820;44.838;37.674;2023-11-21T03:20:11;3.19;87.16
78992;DHT22;72820;44.838;37.674;2023-11-21T03:21:13;3.23;87.22
78992;DHT22;72820;44.838;37.674;2023-11-21T03:22:14;3.21;87.18
78992;DHT22;72820;44.838;37.674;2023-11-21T03:23:16;3.23;87.02
78992;DHT22;72820;44.838;37.674;2023-11-21T03:24:17;3.21;87.16
78992;DHT22;72820;44.838;37.674;2023-11-21T03:25:20;3.26;86.95
78992;DHT22;72820;44.838;37.674;2023-11-21T03:26:25;3.24;86.98
78992;DHT22;72820;44.838;37.674;2023-11-21T03:27:26;3.26;87.03
78992;DHT22;72820;44.838;37.674;2023-11-21T03:28:28;3.24;86.93
78992;DHT22;72820;44.838;37.674;2023-11-21T03:29:29;3.24;87.07
78992;DHT22;72820;44.838;37.674;2023-11-21T03:30:31;3.24;87.00
78992;DHT22;72820;44.838;37.674;2023-11-21T03:31:33;3.23;86.69
78992;DHT22;72820;44.838;37.674;2023-11-21T03:32:34;3.23;86.92
78992;DHT22;72820;44.838;37.674;2023-11-21T03:33:36;3.23;87.00
78992;DHT22;72820;44.838;37.674;2023-11-21T03:34:54;3.17;87.04
78992;DHT22;72820;44.838;37.674;2023-11-21T03:35:56;3.19;87.16
78992;DHT22;72820;44.838;37.674;2023-11-21T03:36:58;3.20;87.37
78992;DHT22;72820;44.838;37.674;2023-11-21T03:38:00;3.21;87.43
78992;DHT22;72820;44.838;37.674;2023-11-21T03:39:01;3.21;87.51
78992;DHT22;72820;44.838;37.674;2023-11-21T03:40:03;3.26;87.43
78992;DHT22;72820;44.838;37.674;2023-11-21T03:41:05;3.24;87.44
78992;DHT22;72820;44.838;37.674;2023-11-21T03:42:07;3.28;87.35
78992;DHT22;72820;44.838;37.674;2023-11-21T03:43:08;3.28;87.25
78992;DHT22;72820;44.838;37.674;2023-11-21T03:44:10;3.30;87.14
78992;DHT22;72820;44.838;37.674;2023-11-21T03:45:11;3.31;87.20
78992;DHT22;72820;44.838;37.674;2023-11-21T03:46:13;3.32;87.21
78992;DHT22;72820;44.838;37.674;2023-11-21T03:47:15;3.32;87.40
78992;DHT22;72820;44.838;37.674;2023-11-21T03:48:16;3.37;87.40
78992;DHT22;72820;44.838;37.674;2023-11-21T03:49:18;3.38;87.30
78992;DHT22;72820;44.838;37.674;2023-11-21T03:50:20;3.38;87.20
78992;DHT22;72820;44.838;37.674;2023-11-21T03:51:21;3.38;87.27
78992;DHT22;72820;44.838;37.674;2023-11-21T03:52:23;3.37;87.08
78992;DHT22;72820;44.838;37.674;2023-11-21T03:53:25;3.38;87.13
78992;DHT22;72820;44.838;37.674;2023-11-21T03:54:26;3.38;87.33
78992;DHT22;72820;44.838;37.674;2023-11-21T03:55:28;3.41;87.22
78992;DHT22;72820;44.838;37.674;2023-11-21T03:56:29;3.41;87.40
78992;DHT22;72820;44.838;37.674;2023-11-21T03:57:31;3.40;86.98
78992;DHT22;72820;44.838;37.674;2023-11-21T03:58:32;3.35;87.19
78992;DHT22;72820;44.838;37.674;2023-11-21T03:59:34;3.35;87.45
78992;DHT22;72820;44.838;37.674;2023-11-21T04:00:35;3.38;87.32
78992;DHT22;72820;44.838;37.674;2023-11-21T04:01:37;3.35;87.35
78992;DHT22;72820;44.838;37.674;2023-11-21T04:02:39;3.34;87.69
78992;DHT22;72820;44.838;37.674;2023-11-21T04:03:40;3.32;87.82
78992;DHT22;72820;44.838;37.674;2023-11-21T04:04:42;3.34;88.02
78992;DHT22;72820;44.838;37.674;2023-11-21T04:05:43;3.35;88.19
78992;DHT22;72820;44.838;37.674;2023-11-21T04:06:48;3.35;88.04
78992;DHT22;72820;44.838;37.674;2023-11-21T04:07:50;3.31;87.98
78992;DHT22;72820;44.838;37.674;2023-11-21T04:08:52;3.32;88.09
78992;DHT22;72820;44.838;37.674;2023-11-21T04:09:53;3.35;88.22
78992;DHT22;72820;44.838;37.674;2023-11-21T04:10:55;3.32;87.85
78992;DHT22;72820;44.838;37.674;2023-11-21T04:11:57;3.32;87.87
78992;DHT22;72820;44.838;37.674;2023-11-21T04:12:58;3.31;87.59
78992;DHT22;72820;44.838;37.674;2023-11-21T04:14:01;3.30;87.71
78992;DHT22;72820;44.838;37.674;2023-11-21T04:15:03;3.30;87.74
78992;DHT22;72820;44.838;37.674;2023-11-21T04:16:08;3.30;87.87
78992;DHT22;72820;44.838;37.674;2023-11-21T04:17:10;3.31;87.72
78992;DHT22;72820;44.838;37.674;2023-11-21T04:18:11;3.27;87.87
78992;DHT22;72820;44.838;37.674;2023-11-21T04:19:13;3.27;87.88
78992;DHT22;72820;44.838;37.674;2023-11-21T04:20:15;3.28;87.91
78992;DHT22;72820;44.838;37.674;2023-11-21T04:21:17;3.28;87.88
78992;DHT22;72820;44.838;37.674;2023-11-21T04:22:19;3.28;87.93
78992;DHT22;72820;44.838;37.674;2023-11-21T04:23:20;3.31;87.85
78992;DHT22;72820;44.838;37.674;2023-11-21T04:24:22;3.30;87.83
78992;DHT22;72820;44.838;37.674;2023-11-21T04:25:23;3.32;87.92
78992;DHT22;72820;44.838;37.674;2023-11-21T04:26:25;3.34;87.68
78992;DHT22;72820;44.838;37.674;2023-11-21T04:27:26;3.31;87.87
78992;DHT22;72820;44.838;37.674;2023-11-21T04:28:28;3.34;87.92
78992;DHT22;72820;44.838;37.674;2023-11-21T04:29:30;3.37;87.78
78992;DHT22;72820;44.838;37.674;2023-11-21T04:30:31;3.32;87.63
78992;DHT22;72820;44.838;37.674;2023-11-21T04:31:33;3.32;87.41
78992;DHT22;72820;44.838;37.674;2023-11-21T04:32:35;3.32;87.34
78992;DHT22;72820;44.838;37.674;2023-11-21T04:33:37;3.31;87.37
78992;DHT22;72820;44.838;37.674;2023-11-21T04:34:38;3.27;87.40
78992;DHT22;72820;44.838;37.674;2023-11-21T04:35:40;3.28;87.61
78992;DHT22;72820;44.838;37.674;2023-11-21T04:36:41;3.30;87.72
78992;DHT22;72820;44.838;37.674;2023-11-21T04:37:42;3.28;87.57
78992;DHT22;72820;44.838;37.674;2023-11-21T04:38:44;3.28;87.12
78992;DHT22;72820;44.838;37.674;2023-11-21T04:39:45;3.30;87.18
78992;DHT22;72820;44.838;37.674;2023-11-21T04:40:49;3.28;87.24
78992;DHT22;72820;44.838;37.674;2023-11-21T04:41:50;3.28;87.27
78992;DHT22;72820;44.838;37.674;2023-11-21T04:42:52;3.30;87.39
78992;DHT22;72820;44.838;37.674;2023-11-21T04:43:55;3.32;87.45
78992;DHT22;72820;44.838;37.674;2023-11-21T04:44:57;3.31;87.63
78992;DHT22;72820;44.838;37.674;2023-11-21T04:45:58;3.37;87.82
78992;DHT22;72820;44.838;37.674;2023-11-21T04:47:00;3.35;87.85
78992;DHT22;72820;44.838;37.674;2023-11-21T04:48:01;3.35;87.86
78992;DHT22;72820;44.838;37.674;2023-11-21T04:49:03;3.37;87.69
78992;DHT22;72820;44.838;37.674;2023-11-21T04:50:05;3.35;87.70
78992;DHT22;72820;44.838;37.674;2023-11-21T04:51:07;3.35;87.63
78992;DHT22;72820;44.838;37.674;2023-11-21T04:52:08;3.38;87.95
78992;DHT22;72820;44.838;37.674;2023-11-21T04:53:10;3.40;87.94
78992;DHT22;72820;44.838;37.674;2023-11-21T04:54:14;3.37;87.68
78992;DHT22;72820;44.838;37.674;2023-11-21T04:55:15;3.40;87.70
78992;DHT22;72820;44.838;37.674;2023-11-21T04:56:17;3.38;87.84
78992;DHT22;72820;44.838;37.674;2023-11-21T04:57:19;3.44;88.04
78992;DHT22;72820;44.838;37.674;2023-11-21T04:58:20;3.47;87.83
78992;DHT22;72820;44.838;37.674;2023-11-21T04:59:22;3.47;87.58
78992;DHT22;72820;44.838;37.674;2023-11-21T05:00:28;3.47;87.35
78992;DHT22;72820;44.838;37.674;2023-11-21T05:01:29;3.44;86.98
78992;DHT22;72820;44.838;37.674;2023-11-21T05:02:32;3.41;86.97
78992;DHT22;72820;44.838;37.674;2023-11-21T05:03:35;3.37;87.23
78992;DHT22;72820;44.838;37.674;2023-11-21T05:04:36;3.37;87.38
78992;DHT22;72820;44.838;37.674;2023-11-21T05:05:38;3.35;87.60
78992;DHT22;72820;44.838;37.674;2023-11-21T05:06:40;3.35;87.79
78992;DHT22;72820;44.838;37.674;2023-11-21T05:07:41;3.35;87.71
78992;DHT22;72820;44.838;37.674;2023-11-21T05:08:43;3.31;87.81
78992;DHT22;72820;44.838;37.674;2023-11-21T05:09:45;3.32;87.98
78992;DHT22;72820;44.838;37.674;2023-11-21T05:10:47;3.31;88.05
78992;DHT22;72820;44.838;37.674;2023-11-21T05:11:50;3.32;87.97
78992;DHT22;72820;44.838;37.674;2023-11-21T05:12:51;3.32;87.98
78992;DHT22;72820;44.838;37.674;2023-11-21T05:13:53;3.32;88.00
78992;DHT22;72820;44.838;37.674;2023-11-21T05:14:55;3.34;87.84
78992;DHT22;72820;44.838;37.674;2023-11-21T05:15:57;3.30;87.76
78992;DHT22;72820;44.838;37.674;2023-11-21T05:16:58;3.30;87.94
78992;DHT22;72820;44.838;37.674;2023-11-21T05:18:00;3.31;87.90
78992;DHT22;72820;44.838;37.674;2023-11-21T05:19:01;3.31;87.59
78992;DHT22;72820;44.838;37.674;2023-11-21T05:20:04;3.31;87.92
78992;DHT22;72820;44.838;37.674;2023-11-21T05:21:09;3.30;87.84
78992;DHT22;72820;44.838;37.674;2023-11-21T05:22:10;3.27;87.97
78992;DHT22;72820;44.838;37.674;2023-11-21T05:23:13;3.28;88.02
78992;DHT22;72820;44.838;37.674;2023-11-21T05:24:14;3.31;88.23
78992;DHT22;72820;44.838;37.674;2023-11-21T05:25:16;3.31;88.27
78992;DHT22;72820;44.838;37.674;2023-11-21T05:26:19;3.31;88.15
78992;DHT22;72820;44.838;37.674;2023-11-21T05:27:21;3.34;88.04
78992;DHT22;72820;44.838;37.674;2023-11-21T05:28:23;3.28;88.12
78992;DHT22;72820;44.838;37.674;2023-11-21T05:29:24;3.30;88.21
78992;DHT22;72820;44.838;37.674;2023-11-21T05:30:26;3.32;88.27
78992;DHT22;72820;44.838;37.674;2023-11-21T05:31:28;3.32;88.31
78992;DHT22;72820;44.838;37.674;2023-11-21T05:32:29;3.34;88.43
78992;DHT22;72820;44.838;37.674;2023-11-21T05:33:31;3.37;88.32
78992;DHT22;72820;44.838;37.674;2023-11-21T05:34:34;3.38;88.10
78992;DHT22;72820;44.838;37.674;2023-11-21T05:35:36;3.38;88.01
78992;DHT22;72820;44.838;37.674;2023-11-21T05:36:37;3.34;88.10
78992;DHT22;72820;44.838;37.674;2023-11-21T05:37:38;3.37;88.46
78992;DHT22;72820;44.838;37.674;2023-11-21T05:38:40;3.38;88.25
78992;DHT22;72820;44.838;37.674;2023-11-21T05:39:42;3.38;88.19
78992;DHT22;72820;44.838;37.674;2023-11-21T05:40:44;3.42;88.07
78992;DHT22;72820;44.838;37.674;2023-11-21T05:41:45;3.44;88.15
78992;DHT22;72820;44.838;37.674;2023-11-21T05:42:48;3.48;88.22
78992;DHT22;72820;44.838;37.674;2023-11-21T05:43:49;3.47;87.78
78992;DHT22;72820;44.838;37.674;2023-11-21T05:44:51;3.45;87.50
78992;DHT22;72820;44.838;37.674;2023-11-21T05:45:52;3.47;87.65
78992;DHT22;72820;44.838;37.674;2023-11-21T05:46:54;3.47;87.63
78992;DHT22;72820;44.838;37.674;2023-11-21T05:47:56;3.45;87.73
78992;DHT22;72820;44.838;37.674;2023-11-21T05:48:57;3.48;87.85
78992;DHT22;72820;44.838;37.674;2023-11-21T05:49:58;3.45;87.77
78992;DHT22;72820;44.838;37.674;2023-11-21T05:50:59;3.50;87.47
78992;DHT22;72820;44.838;37.674;2023-11-21T05:52:03;3.50;87.52
78992;DHT22;72820;44.838;37.674;2023-11-21T05:53:04;3.48;87.60
78992;DHT22;72820;44.838;37.674;2023-11-21T05:54:06;3.48;87.72
78992;DHT22;72820;44.838;37.674;2023-11-21T05:55:08;3.52;87.83
78992;DHT22;72820;44.838;37.674;2023-11-21T05:56:09;3.54;87.94
78992;DHT22;72820;44.838;37.674;2023-11-21T05:57:10;3.55;87.72
78992;DHT22;72820;44.838;37.674;2023-11-21T05:58:12;3.57;87.94
78992;DHT22;72820;44.838;37.674;2023-11-21T05:59:14;3.58;87.86
78992;DHT22;72820;44.838;37.674;2023-11-21T06:00:16;3.61;87.78
78992;DHT22;72820;44.838;37.674;2023-11-21T06:01:24;3.58;87.22
78992;DHT22;72820;44.838;37.674;2023-11-21T06:02:25;3.57;87.35
78992;DHT22;72820;44.838;37.674;2023-11-21T06:03:27;3.58;87.02
78992;DHT22;72820;44.838;37.674;2023-11-21T06:04:28;3.59;87.30
78992;DHT22;72820;44.838;37.674;2023-11-21T06:05:29;3.58;87.19
78992;DHT22;72820;44.838;37.674;2023-11-21T06:06:33;3.57;87.28
78992;DHT22;72820;44.838;37.674;2023-11-21T06:07:38;3.57;87.25
78992;DHT22;72820;44.838;37.674;2023-11-21T06:08:41;3.55;86.86
78992;DHT22;72820;44.838;37.674;2023-11-21T06:09:42;3.55;87.26
78992;DHT22;72820;44.838;37.674;2023-11-21T06:10:45;3.58;87.39
78992;DHT22;72820;44.838;37.674;2023-11-21T06:11:50;3.55;87.12
78992;DHT22;72820;44.838;37.674;2023-11-21T06:12:52;3.54;87.14
78992;DHT22;72820;44.838;37.674;2023-11-21T06:13:54;3.54;87.20
78992;DHT22;72820;44.838;37.674;2023-11-21T06:14:55;3.52;87.25
78992;DHT22;72820;44.838;37.674;2023-11-21T06:15:56;3.55;87.42
78992;DHT22;72820;44.838;37.674;2023-11-21T06:16:58;3.57;87.35
78992;DHT22;72820;44.838;37.674;2023-11-21T06:17:59;3.61;87.40
78992;DHT22;72820;44.838;37.674;2023-11-21T06:19:01;3.64;87.25
78992;DHT22;72820;44.838;37.674;2023-11-21T06:20:03;3.65;87.23
78992;DHT22;72820;44.838;37.674;2023-11-21T06:21:10;3.66;87.24
78992;DHT22;72820;44.838;37.674;2023-11-21T06:22:11;3.68;87.17
78992;DHT22;72820;44.838;37.674;2023-11-21T06:23:13;3.68;86.94
78992;DHT22;72820;44.838;37.674;2023-11-21T06:24:15;3.66;86.65
78992;DHT22;72820;44.838;37.674;2023-11-21T06:25:16;3.66;86.81
78992;DHT22;72820;44.838;37.674;2023-11-21T06:26:18;3.68;86.92
78992;DHT22;72820;44.838;37.674;2023-11-21T06:27:19;3.72;86.79
78992;DHT22;72820;44.838;37.674;2023-11-21T06:28:21;3.75;86.78
78992;DHT22;72820;44.838;37.674;2023-11-21T06:29:22;3.75;86.89
78992;DHT22;72820;44.838;37.674;2023-11-21T06:30:24;3.76;86.74
78992;DHT22;72820;44.838;37.674;2023-11-21T06:31:25;3.76;86.47